sensor_id;sensor_type;location;lat;lon;timestamp;temperature;humidity
5278;DHT22;2662;51.194;6.614;2023-03-23T00:00:09;14.20;99.90
5278;DHT22;2662;51.194;6.614;2023-03-23T00:02:38;14.20;99.90
5278;DHT22;2662;51.194;6.614;2023-03-23T00:05:06;14.10;99.90
5278;DHT22;2662;51.194;6.614;2023-03-23T00:07:34;14.10;99.90
5278;DHT22;2662;51.194;6.614;2023-03-23T00:10:03;14.10;99.90
5278;DHT22;2662;51.194;6.614;2023-03-23T00:12:31;14.10;99.90
5278;DHT22;2662;51.194;6.614;2023-03-23T00:14:59;14.10;99.90
5278;DHT22;2662;51.194;6.614;2023-03-23T00:17:27;14.10;99.90
5278;DHT22;2662;51.194;6.614;2023-03-23T00:19:54;14.20;99.90
5278;DHT22;2662;51.194;6.614;2023-03-23T00:22:21;14.10;99.90
5278;DHT22;2662;51.194;6.614;2023-03-23T00:24:51;14.10;99.90
5278;DHT22;2662;51.194;6.614;2023-03-23T00:27:20;14.10;99.90
5278;DHT22;2662;51.194;6.614;2023-03-23T00:29:48;14.10;99.90
5278;DHT22;2662;51.194;6.614;2023-03-23T00:32:18;14.20;99.90
5278;DHT22;2662;51.194;6.614;2023-03-23T00:34:46;14.10;99.90
5278;DHT22;2662;51.194;6.614;2023-03-23T00:37:15;14.10;99.90
5278;DHT22;2662;51.194;6.614;2023-03-23T00:39:43;14.20;99.90
5278;DHT22;2662;51.194;6.614;2023-03-23T00:42:12;14.10;99.90
5278;DHT22;2662;51.194;6.614;2023-03-23T00:44:40;14.10;99.90
5278;DHT22;2662;51.194;6.614;2023-03-23T00:47:09;14.10;99.90
5278;DHT22;2662;51.194;6.614;2023-03-23T00:49:36;14.10;99.90
5278;DHT22;2662;51.194;6.614;2023-03-23T00:52:05;14.10;99.90
5278;DHT22;2662;51.194;6.614;2023-03-23T00:54:32;14.10;99.90
5278;DHT22;2662;51.194;6.614;2023-03-23T00:56:59;14.10;99.90
5278;DHT22;2662;51.194;6.614;2023-03-23T00:59:26;14.10;99.90
5278;DHT22;2662;51.194;6.614;2023-03-23T01:01:54;14.10;99.90
5278;DHT22;2662;51.194;6.614;2023-03-23T01:04:21;14.10;99.90
5278;DHT22;2662;51.194;6.614;2023-03-23T01:06:49;14.10;99.90
5278;DHT22;2662;51.194;6.614;2023-03-23T01:09:18;14.10;99.90
5278;DHT22;2662;51.194;6.614;2023-03-23T01:11:47;14.10;99.90
5278;DHT22;2662;51.194;6.614;2023-03-23T01:14:16;14.10;99.90
5278;DHT22;2662;51.194;6.614;2023-03-23T01:16:43;14.10;99.90
5278;DHT22;2662;51.194;6.614;2023-03-23T01:19:11;14.20;99.90
5278;DHT22;2662;51.194;6.614;2023-03-23T01:21:38;14.10;99.90
5278;DHT22;2662;51.194;6.614;2023-03-23T01:24:05;14.10;99.90
5278;DHT22;2662;51.194;6.614;2023-03-23T01:26:32;14.20;99.90
5278;DHT22;2662;51.194;6.614;2023-03-23T01:28:59;14.10;99.90
5278;DHT22;2662;51.194;6.614;2023-03-23T01:31:26;14.10;99.90
5278;DHT22;2662;51.194;6.614;2023-03-23T01:33:53;14.10;99.90
5278;DHT22;2662;51.194;6.614;2023-03-23T01:36:24;14.00;99.90
5278;DHT22;2662;51.194;6.614;2023-03-23T01:38:52;13.90;99.90
5278;DHT22;2662;51.194;6.614;2023-03-23T01:41:20;13.80;99.90
5278;DHT22;2662;51.194;6.614;2023-03-23T01:43:54;13.70;99.90
5278;DHT22;2662;51.194;6.614;2023-03-23T01:46:21;13.60;99.90
5278;DHT22;2662;51.194;6.614;2023-03-23T01:48:49;13.60;99.90
5278;DHT22;2662;51.194;6.614;2023-03-23T01:51:18;13.50;99.90
5278;DHT22;2662;51.194;6.614;2023-03-23T01:53:49;13.50;99.90
5278;DHT22;2662;51.194;6.614;2023-03-23T01:56:21;13.50;99.90
5278;DHT22;2662;51.194;6.614;2023-03-23T01:58:51;13.40;99.90
5278;DHT22;2662;51.194;6.614;2023-03-23T02:01:18;13.40;99.90
5278;DHT22;2662;51.194;6.614;2023-03-23T02:03:47;13.30;99.90
5278;DHT22;2662;51.194;6.614;2023-03-23T02:06:14;13.30;99.90
5278;DHT22;2662;51.194;6.614;2023-03-23T02:08:43;13.30;99.90
5278;DHT22;2662;51.194;6.614;2023-03-23T02:11:15;13.40;99.90
5278;DHT22;2662;51.194;6.614;2023-03-23T02:13:43;13.40;99.90
5278;DHT22;2662;51.194;6.614;2023-03-23T02:16:15;13.40;99.90
5278;DHT22;2662;51.194;6.614;2023-03-23T02:18:51;13.40;99.90
5278;DHT22;2662;51.194;6.614;2023-03-23T02:21:43;13.40;99.90
5278;DHT22;2662;51.194;6.614;2023-03-23T02:24:36;13.40;99.90
5278;DHT22;2662;51.194;6.614;2023-03-23T02:27:10;13.40;99.90
5278;DHT22;2662;51.194;6.614;2023-03-23T02:30:08;13.40;99.90
5278;DHT22;2662;51.194;6.614;2023-03-23T02:33:16;13.40;99.90
5278;DHT22;2662;51.194;6.614;2023-03-23T02:35:52;13.50;99.90
5278;DHT22;2662;51.194;6.614;2023-03-23T02:38:23;13.50;99.90
5278;DHT22;2662;51.194;6.614;2023-03-23T02:40:54;13.50;99.90
5278;DHT22;2662;51.194;6.614;2023-03-23T02:43:24;13.50;99.90
5278;DHT22;2662;51.194;6.614;2023-03-23T02:45:53;13.50;99.90
5278;DHT22;2662;51.194;6.614;2023-03-23T02:48:25;13.50;99.90
5278;DHT22;2662;51.194;6.614;2023-03-23T02:50:54;13.50;99.90
5278;DHT22;2662;51.194;6.614;2023-03-23T02:53:23;13.50;99.90
5278;DHT22;2662;51.194;6.614;2023-03-23T02:55:52;13.50;99.90
5278;DHT22;2662;51.194;6.614;2023-03-23T02:58:20;13.50;99.90
5278;DHT22;2662;51.194;6.614;2023-03-23T03:00:48;13.50;99.90
5278;DHT22;2662;51.194;6.614;2023-03-23T03:03:17;13.50;99.90
5278;DHT22;2662;51.194;6.614;2023-03-23T03:05:53;13.50;99.90
5278;DHT22;2662;51.194;6.614;2023-03-23T03:08:26;13.60;99.90
5278;DHT22;2662;51.194;6.614;2023-03-23T03:11:00;13.60;99.90
5278;DHT22;2662;51.194;6.614;2023-03-23T03:13:36;13.50;99.90
5278;DHT22;2662;51.194;6.614;2023-03-23T03:16:10;13.50;99.90
5278;DHT22;2662;51.194;6.614;2023-03-23T03:18:44;13.50;99.90
5278;DHT22;2662;51.194;6.614;2023-03-23T03:21:16;13.50;99.90
5278;DHT22;2662;51.194;6.614;2023-03-23T03:23:47;13.50;99.90
5278;DHT22;2662;51.194;6.614;2023-03-23T03:26:17;13.50;99.90
5278;DHT22;2662;51.194;6.614;2023-03-23T03:28:47;13.50;99.90
5278;DHT22;2662;51.194;6.614;2023-03-23T03:31:17;13.60;99.90
5278;DHT22;2662;51.194;6.614;2023-03-23T03:33:45;13.50;99.90
5278;DHT22;2662;51.194;6.614;2023-03-23T03:36:18;13.50;99.90
5278;DHT22;2662;51.194;6.614;2023-03-23T03:38:48;13.50;99.90
5278;DHT22;2662;51.194;6.614;2023-03-23T03:41:16;13.60;99.90
5278;DHT22;2662;51.194;6.614;2023-03-23T03:43:43;13.60;99.90
5278;DHT22;2662;51.194;6.614;2023-03-23T03:46:10;13.60;99.90
5278;DHT22;2662;51.194;6.614;2023-03-23T03:48:37;13.60;99.90
5278;DHT22;2662;51.194;6.614;2023-03-23T03:51:04;13.60;99.90
5278;DHT22;2662;51.194;6.614;2023-03-23T03:53:32;13.50;99.90
5278;DHT22;2662;51.194;6.614;2023-03-23T03:55:59;13.50;99.90
5278;DHT22;2662;51.194;6.614;2023-03-23T03:58:27;13.60;99.90
5278;DHT22;2662;51.194;6.614;2023-03-23T04:00:57;13.60;99.90
5278;DHT22;2662;51.194;6.614;2023-03-23T04:03:24;13.60;99.90
5278;DHT22;2662;51.194;6.614;2023-03-23T04:05:53;13.60;99.90
5278;DHT22;2662;51.194;6.614;2023-03-23T04:08:20;13.60;99.90
5278;DHT22;2662;51.194;6.614;2023-03-23T04:10:49;13.60;99.90
5278;DHT22;2662;51.194;6.614;2023-03-23T04:13:17;13.60;99.90
5278;DHT22;2662;51.194;6.614;2023-03-23T04:15:44;13.60;99.90
5278;DHT22;2662;51.194;6.614;2023-03-23T04:18:11;13.60;99.90
5278;DHT22;2662;51.194;6.614;2023-03-23T04:20:39;13.60;99.90
5278;DHT22;2662;51.194;6.614;2023-03-23T04:23:05;13.60;99.90
5278;DHT22;2662;51.194;6.614;2023-03-23T04:25:32;13.60;99.90
5278;DHT22;2662;51.194;6.614;2023-03-23T04:28:00;13.60;99.90
5278;DHT22;2662;51.194;6.614;2023-03-23T04:30:28;13.70;99.90
5278;DHT22;2662;51.194;6.614;2023-03-23T04:32:57;13.70;99.90
5278;DHT22;2662;51.194;6.614;2023-03-23T04:35:26;13.70;99.90
5278;DHT22;2662;51.194;6.614;2023-03-23T04:37:53;13.70;99.90
5278;DHT22;2662;51.194;6.614;2023-03-23T04:40:21;13.80;99.90
5278;DHT22;2662;51.194;6.614;2023-03-23T04:42:47;13.80;99.90
5278;DHT22;2662;51.194;6.614;2023-03-23T04:45:19;13.80;99.90
5278;DHT22;2662;51.194;6.614;2023-03-23T04:47:48;13.90;99.90
5278;DHT22;2662;51.194;6.614;2023-03-23T04:50:19;13.90;99.90
5278;DHT22;2662;51.194;6.614;2023-03-23T04:52:47;13.90;99.90
5278;DHT22;2662;51.194;6.614;2023-03-23T04:55:14;13.80;99.90
5278;DHT22;2662;51.194;6.614;2023-03-23T04:57:40;13.80;99.90
5278;DHT22;2662;51.194;6.614;2023-03-23T05:00:08;13.80;99.90
5278;DHT22;2662;51.194;6.614;2023-03-23T05:02:38;13.80;99.90
5278;DHT22;2662;51.194;6.614;2023-03-23T05:05:07;13.80;99.90
5278;DHT22;2662;51.194;6.614;2023-03-23T05:07:34;13.80;99.90
5278;DHT22;2662;51.194;6.614;2023-03-23T05:10:00;13.80;99.90
5278;DHT22;2662;51.194;6.614;2023-03-23T05:12:27;13.80;99.90
5278;DHT22;2662;51.194;6.614;2023-03-23T05:14:54;13.80;99.90
5278;DHT22;2662;51.194;6.614;2023-03-23T05:17:20;13.80;99.90
5278;DHT22;2662;51.194;6.614;2023-03-23T05:19:51;13.80;99.90
5278;DHT22;2662;51.194;6.614;2023-03-23T05:22:19;13.80;99.90
5278;DHT22;2662;51.194;6.614;2023-03-23T05:24:47;13.80;99.90
5278;DHT22;2662;51.194;6.614;2023-03-23T05:27:17;13.80;99.90
5278;DHT22;2662;51.194;6.614;2023-03-23T05:29:45;13.80;99.90
5278;DHT22;2662;51.194;6.614;2023-03-23T05:32:14;13.80;99.90
5278;DHT22;2662;51.194;6.614;2023-03-23T05:34:41;13.80;99.90
5278;DHT22;2662;51.194;6.614;2023-03-23T05:37:09;13.80;99.90
5278;DHT22;2662;51.194;6.614;2023-03-23T05:39:37;13.80;99.90
5278;DHT22;2662;51.194;6.614;2023-03-23T05:42:05;13.80;99.90
5278;DHT22;2662;51.194;6.614;2023-03-23T05:44:33;13.80;99.90
5278;DHT22;2662;51.194;6.614;2023-03-23T05:47:00;13.80;99.90
5278;DHT22;2662;51.194;6.614;2023-03-23T05:49:27;13.70;99.90
5278;DHT22;2662;51.194;6.614;2023-03-23T05:51:54;13.70;99.90
5278;DHT22;2662;51.194;6.614;2023-03-23T05:54:22;13.70;99.90
5278;DHT22;2662;51.194;6.614;2023-03-23T05:56:48;13.70;99.90
5278;DHT22;2662;51.194;6.614;2023-03-23T05:59:15;13.70;99.90
5278;DHT22;2662;51.194;6.614;2023-03-23T06:01:42;13.70;99.90
5278;DHT22;2662;51.194;6.614;2023-03-23T06:04:09;13.70;99.90
5278;DHT22;2662;51.194;6.614;2023-03-23T06:06:37;13.70;99.90
5278;DHT22;2662;51.194;6.614;2023-03-23T06:09:04;13.80;99.90
5278;DHT22;2662;51.194;6.614;2023-03-23T06:11:33;13.80;99.90
5278;DHT22;2662;51.194;6.614;2023-03-23T06:14:00;13.70;99.90
5278;DHT22;2662;51.194;6.614;2023-03-23T06:16:28;13.80;99.90
5278;DHT22;2662;51.194;6.614;2023-03-23T06:18:55;13.80;99.90
5278;DHT22;2662;51.194;6.614;2023-03-23T06:21:22;13.80;99.90
5278;DHT22;2662;51.194;6.614;2023-03-23T06:23:49;13.90;99.90
5278;DHT22;2662;51.194;6.614;2023-03-23T06:26:18;13.90;99.90
5278;DHT22;2662;51.194;6.614;2023-03-23T06:28:47;13.90;99.90
5278;DHT22;2662;51.194;6.614;2023-03-23T06:31:14;13.90;99.90
5278;DHT22;2662;51.194;6.614;2023-03-23T06:33:43;14.00;99.90
5278;DHT22;2662;51.194;6.614;2023-03-23T06:36:10;14.00;99.90
5278;DHT22;2662;51.194;6.614;2023-03-23T06:38:37;14.00;99.90
5278;DHT22;2662;51.194;6.614;2023-03-23T06:41:04;14.00;99.90
5278;DHT22;2662;51.194;6.614;2023-03-23T06:43:31;14.00;99.90
5278;DHT22;2662;51.194;6.614;2023-03-23T06:46:00;14.00;99.90
5278;DHT22;2662;51.194;6.614;2023-03-23T06:48:27;14.10;99.90
5278;DHT22;2662;51.194;6.614;2023-03-23T06:50:53;14.10;99.90
5278;DHT22;2662;51.194;6.614;2023-03-23T06:53:20;14.10;99.90
5278;DHT22;2662;51.194;6.614;2023-03-23T06:55:47;14.20;99.90
5278;DHT22;2662;51.194;6.614;2023-03-23T06:58:14;14.20;99.90
5278;DHT22;2662;51.194;6.614;2023-03-23T07:00:40;14.20;99.90
5278;DHT22;2662;51.194;6.614;2023-03-23T07:03:08;14.30;99.90
5278;DHT22;2662;51.194;6.614;2023-03-23T07:05:35;14.30;99.90
5278;DHT22;2662;51.194;6.614;2023-03-23T07:08:03;14.20;99.90
5278;DHT22;2662;51.194;6.614;2023-03-23T07:10:29;14.20;99.90
5278;DHT22;2662;51.194;6.614;2023-03-23T07:12:57;14.20;99.90
5278;DHT22;2662;51.194;6.614;2023-03-23T07:15:24;14.30;99.90
5278;DHT22;2662;51.194;6.614;2023-03-23T07:17:52;14.30;99.90
5278;DHT22;2662;51.194;6.614;2023-03-23T07:20:21;14.30;99.90
5278;DHT22;2662;51.194;6.614;2023-03-23T07:22:48;14.40;99.90
5278;DHT22;2662;51.194;6.614;2023-03-23T07:25:15;14.60;99.90
5278;DHT22;2662;51.194;6.614;2023-03-23T07:27:44;14.60;99.90
5278;DHT22;2662;51.194;6.614;2023-03-23T07:30:11;14.60;99.90
5278;DHT22;2662;51.194;6.614;2023-03-23T07:32:39;14.70;99.90
5278;DHT22;2662;51.194;6.614;2023-03-23T07:35:06;14.70;99.90
5278;DHT22;2662;51.194;6.614;2023-03-23T07:37:35;14.70;99.90
5278;DHT22;2662;51.194;6.614;2023-03-23T07:40:02;14.70;99.90
5278;DHT22;2662;51.194;6.614;2023-03-23T07:42:40;14.70;99.90
5278;DHT22;2662;51.194;6.614;2023-03-23T07:45:07;14.80;99.90
5278;DHT22;2662;51.194;6.614;2023-03-23T07:47:34;14.90;99.90
5278;DHT22;2662;51.194;6.614;2023-03-23T07:50:01;14.90;99.90
5278;DHT22;2662;51.194;6.614;2023-03-23T07:52:28;14.90;99.90
5278;DHT22;2662;51.194;6.614;2023-03-23T07:54:57;15.00;99.90
5278;DHT22;2662;51.194;6.614;2023-03-23T07:57:24;15.00;99.90
5278;DHT22;2662;51.194;6.614;2023-03-23T07:59:51;15.00;99.90
5278;DHT22;2662;51.194;6.614;2023-03-23T08:02:18;15.10;99.90
5278;DHT22;2662;51.194;6.614;2023-03-23T08:04:45;15.10;99.90
5278;DHT22;2662;51.194;6.614;2023-03-23T08:07:13;15.20;99.90
5278;DHT22;2662;51.194;6.614;2023-03-23T08:09:42;15.10;99.90
5278;DHT22;2662;51.194;6.614;2023-03-23T08:12:10;15.30;99.90
5278;DHT22;2662;51.194;6.614;2023-03-23T08:14:37;15.30;99.90
5278;DHT22;2662;51.194;6.614;2023-03-23T08:17:05;15.30;99.90
5278;DHT22;2662;51.194;6.614;2023-03-23T08:19:32;15.40;99.90
5278;DHT22;2662;51.194;6.614;2023-03-23T08:22:02;15.40;99.90
5278;DHT22;2662;51.194;6.614;2023-03-23T08:24:28;15.50;99.90
5278;DHT22;2662;51.194;6.614;2023-03-23T08:26:55;15.50;99.90
5278;DHT22;2662;51.194;6.614;2023-03-23T08:29:23;15.50;99.90
5278;DHT22;2662;51.194;6.614;2023-03-23T08:31:50;15.60;99.90
5278;DHT22;2662;51.194;6.614;2023-03-23T08:34:17;15.70;99.90
5278;DHT22;2662;51.194;6.614;2023-03-23T08:36:44;15.60;99.90
5278;DHT22;2662;51.194;6.614;2023-03-23T08:39:11;15.60;99.90
5278;DHT22;2662;51.194;6.614;2023-03-23T08:41:39;15.60;99.90
5278;DHT22;2662;51.194;6.614;2023-03-23T08:44:06;15.60;99.90
5278;DHT22;2662;51.194;6.614;2023-03-23T08:46:35;15.70;99.90
5278;DHT22;2662;51.194;6.614;2023-03-23T08:49:02;15.80;99.90
5278;DHT22;2662;51.194;6.614;2023-03-23T08:51:31;15.80;99.90
5278;DHT22;2662;51.194;6.614;2023-03-23T08:53:58;15.80;99.90
5278;DHT22;2662;51.194;6.614;2023-03-23T08:56:25;15.90;99.90
5278;DHT22;2662;51.194;6.614;2023-03-23T08:58:52;15.90;99.90
5278;DHT22;2662;51.194;6.614;2023-03-23T09:01:19;15.80;99.90
5278;DHT22;2662;51.194;6.614;2023-03-23T09:03:48;15.80;99.90
5278;DHT22;2662;51.194;6.614;2023-03-23T09:06:15;15.80;99.90
5278;DHT22;2662;51.194;6.614;2023-03-23T09:08:42;15.90;99.90
5278;DHT22;2662;51.194;6.614;2023-03-23T09:11:10;16.10;99.90
5278;DHT22;2662;51.194;6.614;2023-03-23T09:13:38;16.10;99.90
5278;DHT22;2662;51.194;6.614;2023-03-23T09:16:06;16.20;99.90
5278;DHT22;2662;51.194;6.614;2023-03-23T09:18:33;16.30;99.90
5278;DHT22;2662;51.194;6.614;2023-03-23T09:21:02;16.30;99.90
5278;DHT22;2662;51.194;6.614;2023-03-23T09:23:29;16.20;99.90
5278;DHT22;2662;51.194;6.614;2023-03-23T09:25:56;16.00;99.90
5278;DHT22;2662;51.194;6.614;2023-03-23T09:28:23;16.00;99.90
5278;DHT22;2662;51.194;6.614;2023-03-23T09:30:50;15.80;99.90
5278;DHT22;2662;51.194;6.614;2023-03-23T09:33:17;15.80;99.90
5278;DHT22;2662;51.194;6.614;2023-03-23T09:35:43;15.60;99.90
5278;DHT22;2662;51.194;6.614;2023-03-23T09:38:11;15.50;99.90
5278;DHT22;2662;51.194;6.614;2023-03-23T09:40:45;15.50;99.90
5278;DHT22;2662;51.194;6.614;2023-03-23T09:43:28;15.60;99.90
5278;DHT22;2662;51.194;6.614;2023-03-23T09:46:08;15.80;99.90
5278;DHT22;2662;51.194;6.614;2023-03-23T09:48:43;15.90;99.90
5278;DHT22;2662;51.194;6.614;2023-03-23T09:51:29;15.90;99.90
5278;DHT22;2662;51.194;6.614;2023-03-23T09:54:04;15.60;99.90
5278;DHT22;2662;51.194;6.614;2023-03-23T09:56:33;15.10;99.90
5278;DHT22;2662;51.194;6.614;2023-03-23T09:59:04;14.40;99.90
5278;DHT22;2662;51.194;6.614;2023-03-23T10:01:35;13.90;99.90
5278;DHT22;2662;51.194;6.614;2023-03-23T10:04:07;13.50;99.90
5278;DHT22;2662;51.194;6.614;2023-03-23T10:06:36;13.30;99.90
5278;DHT22;2662;51.194;6.614;2023-03-23T10:09:05;12.90;99.90
5278;DHT22;2662;51.194;6.614;2023-03-23T10:11:42;12.60;99.90
5278;DHT22;2662;51.194;6.614;2023-03-23T10:14:25;12.40;99.90
5278;DHT22;2662;51.194;6.614;2023-03-23T10:16:59;12.50;99.90
5278;DHT22;2662;51.194;6.614;2023-03-23T10:19:29;12.60;99.90
5278;DHT22;2662;51.194;6.614;2023-03-23T10:22:03;12.40;99.90
5278;DHT22;2662;51.194;6.614;2023-03-23T10:24:35;12.30;99.90
5278;DHT22;2662;51.194;6.614;2023-03-23T10:27:10;12.20;99.90
5278;DHT22;2662;51.194;6.614;2023-03-23T10:29:45;12.20;99.90
5278;DHT22;2662;51.194;6.614;2023-03-23T10:32:14;12.20;99.90
5278;DHT22;2662;51.194;6.614;2023-03-23T10:34:45;12.20;99.90
5278;DHT22;2662;51.194;6.614;2023-03-23T10:37:18;12.40;99.90
5278;DHT22;2662;51.194;6.614;2023-03-23T10:39:51;12.40;99.90
5278;DHT22;2662;51.194;6.614;2023-03-23T10:42:27;12.40;99.90
5278;DHT22;2662;51.194;6.614;2023-03-23T10:44:56;12.40;99.90
5278;DHT22;2662;51.194;6.614;2023-03-23T10:47:23;12.50;99.90
5278;DHT22;2662;51.194;6.614;2023-03-23T10:49:53;12.60;99.90
5278;DHT22;2662;51.194;6.614;2023-03-23T10:52:30;12.70;99.90
5278;DHT22;2662;51.194;6.614;2023-03-23T10:55:03;12.60;99.90
5278;DHT22;2662;51.194;6.614;2023-03-23T10:57:32;12.50;99.90
5278;DHT22;2662;51.194;6.614;2023-03-23T11:00:01;12.70;99.90
5278;DHT22;2662;51.194;6.614;2023-03-23T11:02:37;12.80;99.90
5278;DHT22;2662;51.194;6.614;2023-03-23T11:05:09;12.80;99.90
5278;DHT22;2662;51.194;6.614;2023-03-23T11:07:39;12.80;99.90
5278;DHT22;2662;51.194;6.614;2023-03-23T11:10:21;12.90;99.90
5278;DHT22;2662;51.194;6.614;2023-03-23T11:12:49;12.80;99.90
5278;DHT22;2662;51.194;6.614;2023-03-23T11:15:26;12.80;99.90
5278;DHT22;2662;51.194;6.614;2023-03-23T11:17:59;13.10;99.90
5278;DHT22;2662;51.194;6.614;2023-03-23T11:20:27;13.40;99.90
5278;DHT22;2662;51.194;6.614;2023-03-23T11:22:55;13.50;99.90
5278;DHT22;2662;51.194;6.614;2023-03-23T11:25:23;13.60;99.90
5278;DHT22;2662;51.194;6.614;2023-03-23T11:27:52;13.60;99.90
5278;DHT22;2662;51.194;6.614;2023-03-23T11:30:22;13.60;99.90
5278;DHT22;2662;51.194;6.614;2023-03-23T11:32:50;13.60;99.90
5278;DHT22;2662;51.194;6.614;2023-03-23T11:35:20;13.60;99.90
5278;DHT22;2662;51.194;6.614;2023-03-23T11:37:49;13.80;99.90
5278;DHT22;2662;51.194;6.614;2023-03-23T11:40:19;14.20;99.90
5278;DHT22;2662;51.194;6.614;2023-03-23T11:42:51;14.40;99.90
5278;DHT22;2662;51.194;6.614;2023-03-23T11:45:32;14.50;99.90
5278;DHT22;2662;51.194;6.614;2023-03-23T11:48:12;14.60;99.90
5278;DHT22;2662;51.194;6.614;2023-03-23T11:50:48;14.40;99.90
5278;DHT22;2662;51.194;6.614;2023-03-23T11:53:23;14.30;99.90
5278;DHT22;2662;51.194;6.614;2023-03-23T11:55:56;14.30;99.90
5278;DHT22;2662;51.194;6.614;2023-03-23T11:58:25;14.10;99.90
5278;DHT22;2662;51.194;6.614;2023-03-23T12:01:04;14.10;99.90
5278;DHT22;2662;51.194;6.614;2023-03-23T12:03:45;14.10;99.90
5278;DHT22;2662;51.194;6.614;2023-03-23T12:06:20;14.10;99.90
5278;DHT22;2662;51.194;6.614;2023-03-23T12:08:58;14.30;99.90
5278;DHT22;2662;51.194;6.614;2023-03-23T12:11:31;14.60;99.90
5278;DHT22;2662;51.194;6.614;2023-03-23T12:14:12;14.80;99.90
5278;DHT22;2662;51.194;6.614;2023-03-23T12:16:54;14.80;99.90
5278;DHT22;2662;51.194;6.614;2023-03-23T12:19:27;14.80;99.90
5278;DHT22;2662;51.194;6.614;2023-03-23T12:22:02;14.70;99.90
5278;DHT22;2662;51.194;6.614;2023-03-23T12:24:41;14.60;99.90
5278;DHT22;2662;51.194;6.614;2023-03-23T12:27:15;14.60;99.90
5278;DHT22;2662;51.194;6.614;2023-03-23T12:29:53;14.50;99.90
5278;DHT22;2662;51.194;6.614;2023-03-23T12:32:32;14.50;99.90
5278;DHT22;2662;51.194;6.614;2023-03-23T12:35:11;14.70;99.90
5278;DHT22;2662;51.194;6.614;2023-03-23T12:37:50;15.00;99.90
5278;DHT22;2662;51.194;6.614;2023-03-23T12:40:42;15.20;99.90
5278;DHT22;2662;51.194;6.614;2023-03-23T12:43:17;15.30;99.90
5278;DHT22;2662;51.194;6.614;2023-03-23T12:45:59;15.40;99.90
5278;DHT22;2662;51.194;6.614;2023-03-23T12:48:31;15.50;99.90
5278;DHT22;2662;51.194;6.614;2023-03-23T12:51:11;15.70;99.90
5278;DHT22;2662;51.194;6.614;2023-03-23T12:53:44;15.70;99.90
5278;DHT22;2662;51.194;6.614;2023-03-23T12:56:17;15.60;99.90
5278;DHT22;2662;51.194;6.614;2023-03-23T12:58:47;15.70;99.90
5278;DHT22;2662;51.194;6.614;2023-03-23T13:01:19;16.00;99.90
5278;DHT22;2662;51.194;6.614;2023-03-23T13:03:53;16.20;99.90
5278;DHT22;2662;51.194;6.614;2023-03-23T13:06:25;16.50;99.90
5278;DHT22;2662;51.194;6.614;2023-03-23T13:08:59;16.60;99.90
5278;DHT22;2662;51.194;6.614;2023-03-23T13:11:32;16.70;99.90
5278;DHT22;2662;51.194;6.614;2023-03-23T13:14:06;16.60;99.90
5278;DHT22;2662;51.194;6.614;2023-03-23T13:16:40;16.60;99.90
5278;DHT22;2662;51.194;6.614;2023-03-23T13:19:13;16.40;99.90
5278;DHT22;2662;51.194;6.614;2023-03-23T13:21:44;16.30;99.90
5278;DHT22;2662;51.194;6.614;2023-03-23T13:24:15;16.30;99.90
5278;DHT22;2662;51.194;6.614;2023-03-23T13:26:44;16.30;99.90
5278;DHT22;2662;51.194;6.614;2023-03-23T13:29:14;16.30;99.90
5278;DHT22;2662;51.194;6.614;2023-03-23T13:31:45;16.30;99.90
5278;DHT22;2662;51.194;6.614;2023-03-23T13:34:17;16.20;99.90
5278;DHT22;2662;51.194;6.614;2023-03-23T13:36:52;16.00;99.90
5278;DHT22;2662;51.194;6.614;2023-03-23T13:39:21;16.00;99.90
5278;DHT22;2662;51.194;6.614;2023-03-23T13:42:00;15.90;99.90
5278;DHT22;2662;51.194;6.614;2023-03-23T13:44:41;15.80;99.90
5278;DHT22;2662;51.194;6.614;2023-03-23T13:47:21;15.60;99.90
5278;DHT22;2662;51.194;6.614;2023-03-23T13:49:50;15.50;99.90
5278;DHT22;2662;51.194;6.614;2023-03-23T13:52:23;15.30;99.90
5278;DHT22;2662;51.194;6.614;2023-03-23T13:54:51;15.30;99.90
5278;DHT22;2662;51.194;6.614;2023-03-23T13:57:33;15.20;99.90
5278;DHT22;2662;51.194;6.614;2023-03-23T14:00:11;15.10;99.90
5278;DHT22;2662;51.194;6.614;2023-03-23T14:02:42;15.20;99.90
5278;DHT22;2662;51.194;6.614;2023-03-23T14:05:19;15.40;99.90
5278;DHT22;2662;51.194;6.614;2023-03-23T14:07:53;15.50;99.90
5278;DHT22;2662;51.194;6.614;2023-03-23T14:10:20;15.70;99.90
5278;DHT22;2662;51.194;6.614;2023-03-23T14:12:50;15.80;99.90
5278;DHT22;2662;51.194;6.614;2023-03-23T14:15:19;16.00;99.90
5278;DHT22;2662;51.194;6.614;2023-03-23T14:17:47;16.10;99.90
5278;DHT22;2662;51.194;6.614;2023-03-23T14:20:24;16.20;99.90
5278;DHT22;2662;51.194;6.614;2023-03-23T14:22:54;16.20;99.90
5278;DHT22;2662;51.194;6.614;2023-03-23T14:25:22;16.30;99.90
5278;DHT22;2662;51.194;6.614;2023-03-23T14:27:51;16.20;99.90
5278;DHT22;2662;51.194;6.614;2023-03-23T14:30:21;16.20;99.90
5278;DHT22;2662;51.194;6.614;2023-03-23T14:32:51;16.20;99.90
5278;DHT22;2662;51.194;6.614;2023-03-23T14:35:21;16.20;99.90
5278;DHT22;2662;51.194;6.614;2023-03-23T14:37:48;16.20;99.90
5278;DHT22;2662;51.194;6.614;2023-03-23T14:40:17;16.10;99.90
5278;DHT22;2662;51.194;6.614;2023-03-23T14:42:45;16.10;99.90
5278;DHT22;2662;51.194;6.614;2023-03-23T14:45:15;16.20;99.90
5278;DHT22;2662;51.194;6.614;2023-03-23T14:47:44;16.10;99.90
5278;DHT22;2662;51.194;6.614;2023-03-23T14:50:30;15.90;99.90
5278;DHT22;2662;51.194;6.614;2023-03-23T14:53:00;15.90;99.90
5278;DHT22;2662;51.194;6.614;2023-03-23T14:55:30;15.70;99.90
5278;DHT22;2662;51.194;6.614;2023-03-23T14:58:06;15.70;99.90
5278;DHT22;2662;51.194;6.614;2023-03-23T15:00:37;15.70;99.90
5278;DHT22;2662;51.194;6.614;2023-03-23T15:03:07;15.70;99.90
5278;DHT22;2662;51.194;6.614;2023-03-23T15:05:42;16.00;99.90
5278;DHT22;2662;51.194;6.614;2023-03-23T15:08:13;16.20;99.90
5278;DHT22;2662;51.194;6.614;2023-03-23T15:10:41;16.20;99.90
5278;DHT22;2662;51.194;6.614;2023-03-23T15:13:11;16.30;99.90
5278;DHT22;2662;51.194;6.614;2023-03-23T15:15:38;16.30;99.90
5278;DHT22;2662;51.194;6.614;2023-03-23T15:18:22;16.30;99.90
5278;DHT22;2662;51.194;6.614;2023-03-23T15:20:53;16.30;99.90
5278;DHT22;2662;51.194;6.614;2023-03-23T15:23:25;16.30;99.90
5278;DHT22;2662;51.194;6.614;2023-03-23T15:25:54;16.40;99.90
5278;DHT22;2662;51.194;6.614;2023-03-23T15:28:27;16.50;99.90
5278;DHT22;2662;51.194;6.614;2023-03-23T15:30:56;16.50;99.90
5278;DHT22;2662;51.194;6.614;2023-03-23T15:33:24;16.50;99.90
5278;DHT22;2662;51.194;6.614;2023-03-23T15:35:56;16.40;99.90
5278;DHT22;2662;51.194;6.614;2023-03-23T15:38:24;16.40;99.90
5278;DHT22;2662;51.194;6.614;2023-03-23T15:40:53;16.40;99.90
5278;DHT22;2662;51.194;6.614;2023-03-23T15:43:22;16.50;99.90
5278;DHT22;2662;51.194;6.614;2023-03-23T15:45:54;16.50;99.90
5278;DHT22;2662;51.194;6.614;2023-03-23T15:48:22;16.50;99.90
5278;DHT22;2662;51.194;6.614;2023-03-23T15:50:50;16.50;99.90
5278;DHT22;2662;51.194;6.614;2023-03-23T15:53:30;16.50;99.90
5278;DHT22;2662;51.194;6.614;2023-03-23T15:56:00;16.50;99.90
5278;DHT22;2662;51.194;6.614;2023-03-23T15:58:28;16.50;99.90
5278;DHT22;2662;51.194;6.614;2023-03-23T16:00:55;16.60;99.90
5278;DHT22;2662;51.194;6.614;2023-03-23T16:03:23;16.60;99.90
5278;DHT22;2662;51.194;6.614;2023-03-23T16:05:52;16.70;99.90
5278;DHT22;2662;51.194;6.614;2023-03-23T16:08:19;16.70;99.90
5278;DHT22;2662;51.194;6.614;2023-03-23T16:10:47;16.70;99.90
5278;DHT22;2662;51.194;6.614;2023-03-23T16:13:15;16.80;99.90
5278;DHT22;2662;51.194;6.614;2023-03-23T16:15:43;16.80;99.90
5278;DHT22;2662;51.194;6.614;2023-03-23T16:18:16;16.70;99.90
5278;DHT22;2662;51.194;6.614;2023-03-23T16:20:43;16.70;99.90